Terminal Aerodrome Forecast
Issued by NWS

Home | Current Version | Previous Version | Text Only | Print | Product List | Glossary On
Versions: 1 2 3 4 5 6 7 8 9 10 11 12
000
FTUS45 KGJT 011727
TAFMTJ
TAF
KMTJ 011727Z 0118/0218 00000KT P6SM FEW100
     FM012000 31009KT P6SM SCT100
     FM020300 14005KT P6SM SKC
     FM020600 14009KT P6SM SKC
     FM021500 00000KT P6SM SKC=

USA.gov is the U.S. government's official web portal to all federal, state and local government web resources and services.